sensor_id;sensor_type;location;lat;lon;timestamp;P1;durP1;ratioP1;P2;durP2;ratioP2
80163;SDS011;70071;55.130;61.268;2024-03-08T00:02:03;4.82;;;2.90;;
80163;SDS011;70071;55.130;61.268;2024-03-08T00:04:29;5.78;;;2.75;;
80163;SDS011;70071;55.130;61.268;2024-03-08T00:06:55;5.82;;;3.22;;
80163;SDS011;70071;55.130;61.268;2024-03-08T00:09:21;6.13;;;2.88;;
80163;SDS011;70071;55.130;61.268;2024-03-08T00:11:47;4.70;;;3.00;;
80163;SDS011;70071;55.130;61.268;2024-03-08T00:14:15;5.53;;;3.10;;
80163;SDS011;70071;55.130;61.268;2024-03-08T00:16:42;5.65;;;3.08;;
80163;SDS011;70071;55.130;61.268;2024-03-08T00:21:35;4.55;;;2.67;;
80163;SDS011;70071;55.130;61.268;2024-03-08T00:24:01;5.15;;;2.83;;
80163;SDS011;70071;55.130;61.268;2024-03-08T00:26:27;5.32;;;2.50;;
80163;SDS011;70071;55.130;61.268;2024-03-08T00:28:55;6.28;;;3.08;;
80163;SDS011;70071;55.130;61.268;2024-03-08T00:31:21;7.30;;;2.95;;
80163;SDS011;70071;55.130;61.268;2024-03-08T00:33:47;5.35;;;2.70;;
80163;SDS011;70071;55.130;61.268;2024-03-08T00:36:13;6.75;;;3.95;;
80163;SDS011;70071;55.130;61.268;2024-03-08T00:38:39;5.20;;;2.83;;
80163;SDS011;70071;55.130;61.268;2024-03-08T00:41:05;5.82;;;2.72;;
80163;SDS011;70071;55.130;61.268;2024-03-08T00:43:31;5.80;;;2.95;;
80163;SDS011;70071;55.130;61.268;2024-03-08T00:45:57;7.72;;;3.00;;
80163;SDS011;70071;55.130;61.268;2024-03-08T00:48:23;6.50;;;3.00;;
80163;SDS011;70071;55.130;61.268;2024-03-08T00:50:49;5.53;;;2.67;;
80163;SDS011;70071;55.130;61.268;2024-03-08T00:53:15;5.60;;;3.40;;
80163;SDS011;70071;55.130;61.268;2024-03-08T00:55:42;5.18;;;2.75;;
80163;SDS011;70071;55.130;61.268;2024-03-08T00:58:12;5.85;;;2.95;;
80163;SDS011;70071;55.130;61.268;2024-03-08T01:00:38;4.85;;;2.83;;
80163;SDS011;70071;55.130;61.268;2024-03-08T01:03:04;6.50;;;3.28;;
80163;SDS011;70071;55.130;61.268;2024-03-08T01:05:30;6.55;;;3.30;;
80163;SDS011;70071;55.130;61.268;2024-03-08T01:07:56;6.45;;;2.80;;
80163;SDS011;70071;55.130;61.268;2024-03-08T01:10:22;5.45;;;2.17;;
80163;SDS011;70071;55.130;61.268;2024-03-08T01:12:48;5.75;;;3.00;;
80163;SDS011;70071;55.130;61.268;2024-03-08T01:15:15;5.25;;;2.45;;
80163;SDS011;70071;55.130;61.268;2024-03-08T01:17:41;6.18;;;3.13;;
80163;SDS011;70071;55.130;61.268;2024-03-08T01:20:09;7.97;;;3.88;;
80163;SDS011;70071;55.130;61.268;2024-03-08T01:22:38;5.25;;;3.13;;
80163;SDS011;70071;55.130;61.268;2024-03-08T01:25:04;6.78;;;2.22;;
80163;SDS011;70071;55.130;61.268;2024-03-08T01:27:31;5.97;;;2.78;;
80163;SDS011;70071;55.130;61.268;2024-03-08T01:29:57;6.55;;;2.95;;
80163;SDS011;70071;55.130;61.268;2024-03-08T01:32:24;6.00;;;2.50;;
80163;SDS011;70071;55.130;61.268;2024-03-08T01:34:50;5.43;;;2.47;;
80163;SDS011;70071;55.130;61.268;2024-03-08T01:37:16;7.05;;;2.70;;
80163;SDS011;70071;55.130;61.268;2024-03-08T01:39:42;7.03;;;3.03;;
80163;SDS011;70071;55.130;61.268;2024-03-08T01:42:08;4.80;;;2.40;;
80163;SDS011;70071;55.130;61.268;2024-03-08T01:44:36;3.83;;;2.33;;
80163;SDS011;70071;55.130;61.268;2024-03-08T01:47:02;6.43;;;2.42;;
80163;SDS011;70071;55.130;61.268;2024-03-08T01:49:29;6.00;;;2.80;;
80163;SDS011;70071;55.130;61.268;2024-03-08T01:51:55;5.85;;;2.70;;
80163;SDS011;70071;55.130;61.268;2024-03-08T01:54:22;6.38;;;3.08;;
80163;SDS011;70071;55.130;61.268;2024-03-08T01:56:49;7.20;;;2.88;;
80163;SDS011;70071;55.130;61.268;2024-03-08T01:59:15;5.05;;;2.40;;
80163;SDS011;70071;55.130;61.268;2024-03-08T02:01:41;6.32;;;3.13;;
80163;SDS011;70071;55.130;61.268;2024-03-08T02:04:08;5.75;;;3.10;;
80163;SDS011;70071;55.130;61.268;2024-03-08T02:06:35;5.28;;;2.53;;
80163;SDS011;70071;55.130;61.268;2024-03-08T02:09:01;6.68;;;2.83;;
80163;SDS011;70071;55.130;61.268;2024-03-08T02:11:31;4.50;;;2.25;;
80163;SDS011;70071;55.130;61.268;2024-03-08T02:13:59;6.80;;;3.28;;
80163;SDS011;70071;55.130;61.268;2024-03-08T02:16:25;6.68;;;2.40;;
80163;SDS011;70071;55.130;61.268;2024-03-08T02:18:51;5.45;;;3.03;;
80163;SDS011;70071;55.130;61.268;2024-03-08T02:21:17;5.85;;;2.70;;
80163;SDS011;70071;55.130;61.268;2024-03-08T02:23:43;8.88;;;3.53;;
80163;SDS011;70071;55.130;61.268;2024-03-08T02:26:10;5.13;;;2.63;;
80163;SDS011;70071;55.130;61.268;2024-03-08T02:28:36;6.03;;;2.60;;
80163;SDS011;70071;55.130;61.268;2024-03-08T02:31:04;4.65;;;2.72;;
80163;SDS011;70071;55.130;61.268;2024-03-08T02:33:33;5.68;;;2.50;;
80163;SDS011;70071;55.130;61.268;2024-03-08T02:36:00;5.57;;;3.03;;
80163;SDS011;70071;55.130;61.268;2024-03-08T02:38:26;8.02;;;2.95;;
80163;SDS011;70071;55.130;61.268;2024-03-08T02:40:53;6.43;;;3.40;;
80163;SDS011;70071;55.130;61.268;2024-03-08T02:43:20;5.90;;;3.47;;
80163;SDS011;70071;55.130;61.268;2024-03-08T02:45:50;6.40;;;3.13;;
80163;SDS011;70071;55.130;61.268;2024-03-08T02:48:19;6.70;;;2.85;;
80163;SDS011;70071;55.130;61.268;2024-03-08T02:53:12;7.88;;;3.90;;
80163;SDS011;70071;55.130;61.268;2024-03-08T02:55:39;6.75;;;3.50;;
80163;SDS011;70071;55.130;61.268;2024-03-08T02:58:07;6.47;;;4.22;;
80163;SDS011;70071;55.130;61.268;2024-03-08T03:00:37;9.68;;;4.40;;
80163;SDS011;70071;55.130;61.268;2024-03-08T03:03:06;7.75;;;4.30;;
80163;SDS011;70071;55.130;61.268;2024-03-08T03:05:33;9.20;;;4.35;;
80163;SDS011;70071;55.130;61.268;2024-03-08T03:08:01;9.93;;;4.40;;
80163;SDS011;70071;55.130;61.268;2024-03-08T03:10:29;6.57;;;4.28;;
80163;SDS011;70071;55.130;61.268;2024-03-08T03:12:55;6.40;;;3.70;;
80163;SDS011;70071;55.130;61.268;2024-03-08T03:15:21;12.40;;;5.63;;
80163;SDS011;70071;55.130;61.268;2024-03-08T03:17:48;9.00;;;4.82;;
80163;SDS011;70071;55.130;61.268;2024-03-08T03:20:17;8.93;;;4.68;;
80163;SDS011;70071;55.130;61.268;2024-03-08T03:22:49;8.52;;;4.47;;
80163;SDS011;70071;55.130;61.268;2024-03-08T03:25:18;8.15;;;3.88;;
80163;SDS011;70071;55.130;61.268;2024-03-08T03:27:51;8.02;;;4.32;;
80163;SDS011;70071;55.130;61.268;2024-03-08T03:30:18;9.07;;;4.70;;
80163;SDS011;70071;55.130;61.268;2024-03-08T03:32:50;9.73;;;4.03;;
80163;SDS011;70071;55.130;61.268;2024-03-08T03:35:17;7.38;;;4.03;;
80163;SDS011;70071;55.130;61.268;2024-03-08T03:37:46;8.50;;;4.40;;
80163;SDS011;70071;55.130;61.268;2024-03-08T03:40:31;9.77;;;4.53;;
80163;SDS011;70071;55.130;61.268;2024-03-08T03:42:58;8.32;;;4.15;;
80163;SDS011;70071;55.130;61.268;2024-03-08T03:45:24;6.72;;;4.38;;
80163;SDS011;70071;55.130;61.268;2024-03-08T03:47:50;7.93;;;3.92;;
80163;SDS011;70071;55.130;61.268;2024-03-08T03:50:17;8.43;;;3.97;;
80163;SDS011;70071;55.130;61.268;2024-03-08T03:52:45;8.07;;;3.75;;
80163;SDS011;70071;55.130;61.268;2024-03-08T03:55:12;7.03;;;4.00;;
80163;SDS011;70071;55.130;61.268;2024-03-08T03:57:39;10.15;;;4.00;;
80163;SDS011;70071;55.130;61.268;2024-03-08T04:00:06;6.15;;;3.28;;
80163;SDS011;70071;55.130;61.268;2024-03-08T04:02:38;7.13;;;3.10;;
80163;SDS011;70071;55.130;61.268;2024-03-08T04:05:05;7.63;;;3.60;;
80163;SDS011;70071;55.130;61.268;2024-03-08T04:07:33;6.72;;;3.75;;
80163;SDS011;70071;55.130;61.268;2024-03-08T04:10:03;7.28;;;3.28;;
80163;SDS011;70071;55.130;61.268;2024-03-08T04:12:32;5.25;;;3.45;;
80163;SDS011;70071;55.130;61.268;2024-03-08T04:14:58;6.68;;;3.90;;
80163;SDS011;70071;55.130;61.268;2024-03-08T04:17:24;5.47;;;3.15;;
80163;SDS011;70071;55.130;61.268;2024-03-08T04:19:50;7.75;;;3.67;;
80163;SDS011;70071;55.130;61.268;2024-03-08T04:22:16;6.03;;;3.40;;
80163;SDS011;70071;55.130;61.268;2024-03-08T04:24:46;7.78;;;3.88;;
80163;SDS011;70071;55.130;61.268;2024-03-08T04:27:12;8.02;;;4.65;;
80163;SDS011;70071;55.130;61.268;2024-03-08T04:29:40;7.68;;;3.83;;
80163;SDS011;70071;55.130;61.268;2024-03-08T04:34:34;6.80;;;3.47;;
80163;SDS011;70071;55.130;61.268;2024-03-08T04:37:01;7.15;;;3.47;;
80163;SDS011;70071;55.130;61.268;2024-03-08T04:39:27;6.90;;;3.72;;
80163;SDS011;70071;55.130;61.268;2024-03-08T04:41:55;5.47;;;3.58;;
80163;SDS011;70071;55.130;61.268;2024-03-08T04:44:24;7.75;;;4.07;;
80163;SDS011;70071;55.130;61.268;2024-03-08T04:46:50;7.55;;;3.75;;
80163;SDS011;70071;55.130;61.268;2024-03-08T04:49:16;8.88;;;4.05;;
80163;SDS011;70071;55.130;61.268;2024-03-08T04:51:43;8.80;;;4.25;;
80163;SDS011;70071;55.130;61.268;2024-03-08T04:54:12;6.85;;;4.10;;
80163;SDS011;70071;55.130;61.268;2024-03-08T04:56:38;5.20;;;3.17;;
80163;SDS011;70071;55.130;61.268;2024-03-08T04:59:04;6.15;;;3.95;;
80163;SDS011;70071;55.130;61.268;2024-03-08T05:01:33;7.03;;;4.10;;
80163;SDS011;70071;55.130;61.268;2024-03-08T05:04:03;5.65;;;3.42;;
80163;SDS011;70071;55.130;61.268;2024-03-08T05:06:31;6.13;;;3.67;;
80163;SDS011;70071;55.130;61.268;2024-03-08T05:08:57;6.93;;;3.00;;
80163;SDS011;70071;55.130;61.268;2024-03-08T05:11:23;6.50;;;3.33;;
80163;SDS011;70071;55.130;61.268;2024-03-08T05:13:49;5.38;;;3.45;;
80163;SDS011;70071;55.130;61.268;2024-03-08T05:16:15;5.22;;;3.05;;
80163;SDS011;70071;55.130;61.268;2024-03-08T05:18:41;7.07;;;3.22;;
80163;SDS011;70071;55.130;61.268;2024-03-08T05:21:08;5.80;;;3.33;;
80163;SDS011;70071;55.130;61.268;2024-03-08T05:23:35;6.35;;;3.72;;
80163;SDS011;70071;55.130;61.268;2024-03-08T05:26:01;6.15;;;3.00;;
80163;SDS011;70071;55.130;61.268;2024-03-08T05:28:27;5.68;;;3.28;;
80163;SDS011;70071;55.130;61.268;2024-03-08T05:30:53;5.80;;;3.50;;
80163;SDS011;70071;55.130;61.268;2024-03-08T05:33:22;5.88;;;3.35;;
80163;SDS011;70071;55.130;61.268;2024-03-08T05:35:49;3.88;;;2.42;;
80163;SDS011;70071;55.130;61.268;2024-03-08T05:38:15;5.53;;;3.35;;
80163;SDS011;70071;55.130;61.268;2024-03-08T05:40:41;5.47;;;2.78;;
80163;SDS011;70071;55.130;61.268;2024-03-08T05:43:08;6.38;;;3.00;;
80163;SDS011;70071;55.130;61.268;2024-03-08T05:45:34;6.00;;;2.75;;
80163;SDS011;70071;55.130;61.268;2024-03-08T05:48:00;4.53;;;2.70;;
80163;SDS011;70071;55.130;61.268;2024-03-08T05:50:26;5.35;;;2.70;;
80163;SDS011;70071;55.130;61.268;2024-03-08T05:52:52;4.63;;;2.50;;
80163;SDS011;70071;55.130;61.268;2024-03-08T05:55:19;5.60;;;2.75;;
80163;SDS011;70071;55.130;61.268;2024-03-08T05:57:46;5.70;;;2.92;;
80163;SDS011;70071;55.130;61.268;2024-03-08T06:02:41;4.63;;;2.25;;
80163;SDS011;70071;55.130;61.268;2024-03-08T06:05:08;7.90;;;3.17;;
80163;SDS011;70071;55.130;61.268;2024-03-08T06:07:36;4.95;;;2.88;;
80163;SDS011;70071;55.130;61.268;2024-03-08T06:10:07;4.35;;;2.40;;
80163;SDS011;70071;55.130;61.268;2024-03-08T06:12:35;7.70;;;3.15;;
80163;SDS011;70071;55.130;61.268;2024-03-08T06:15:07;6.63;;;2.72;;
80163;SDS011;70071;55.130;61.268;2024-03-08T06:17:40;8.40;;;3.75;;
80163;SDS011;70071;55.130;61.268;2024-03-08T06:20:06;6.07;;;3.80;;
80163;SDS011;70071;55.130;61.268;2024-03-08T06:22:39;9.10;;;4.47;;
80163;SDS011;70071;55.130;61.268;2024-03-08T06:25:10;6.40;;;3.15;;
80163;SDS011;70071;55.130;61.268;2024-03-08T06:27:39;5.55;;;3.97;;
80163;SDS011;70071;55.130;61.268;2024-03-08T06:30:08;8.15;;;3.70;;
80163;SDS011;70071;55.130;61.268;2024-03-08T06:32:35;5.53;;;3.13;;
80163;SDS011;70071;55.130;61.268;2024-03-08T06:35:05;5.97;;;3.38;;
80163;SDS011;70071;55.130;61.268;2024-03-08T06:37:32;4.63;;;3.10;;
80163;SDS011;70071;55.130;61.268;2024-03-08T06:39:59;5.55;;;2.92;;
80163;SDS011;70071;55.130;61.268;2024-03-08T06:42:27;5.68;;;3.58;;
80163;SDS011;70071;55.130;61.268;2024-03-08T06:44:53;6.30;;;3.78;;
80163;SDS011;70071;55.130;61.268;2024-03-08T06:47:21;5.20;;;3.28;;
80163;SDS011;70071;55.130;61.268;2024-03-08T06:49:51;9.35;;;4.05;;
80163;SDS011;70071;55.130;61.268;2024-03-08T06:52:17;7.22;;;3.63;;
80163;SDS011;70071;55.130;61.268;2024-03-08T06:54:43;6.22;;;2.92;;
80163;SDS011;70071;55.130;61.268;2024-03-08T06:57:10;5.32;;;2.90;;
80163;SDS011;70071;55.130;61.268;2024-03-08T06:59:36;4.88;;;3.20;;
80163;SDS011;70071;55.130;61.268;2024-03-08T07:02:02;4.55;;;3.05;;
80163;SDS011;70071;55.130;61.268;2024-03-08T07:04:29;4.40;;;2.67;;
80163;SDS011;70071;55.130;61.268;2024-03-08T07:06:57;4.82;;;2.53;;
80163;SDS011;70071;55.130;61.268;2024-03-08T07:09:23;4.82;;;3.20;;
80163;SDS011;70071;55.130;61.268;2024-03-08T07:11:52;6.43;;;2.95;;
80163;SDS011;70071;55.130;61.268;2024-03-08T07:14:23;4.00;;;2.58;;
80163;SDS011;70071;55.130;61.268;2024-03-08T07:16:49;4.03;;;2.63;;
80163;SDS011;70071;55.130;61.268;2024-03-08T07:19:16;5.00;;;2.33;;
80163;SDS011;70071;55.130;61.268;2024-03-08T07:21:43;3.78;;;2.25;;
80163;SDS011;70071;55.130;61.268;2024-03-08T07:24:10;4.05;;;2.17;;
80163;SDS011;70071;55.130;61.268;2024-03-08T07:26:43;4.03;;;2.00;;
80163;SDS011;70071;55.130;61.268;2024-03-08T07:29:09;7.35;;;1.95;;
80163;SDS011;70071;55.130;61.268;2024-03-08T07:31:35;4.10;;;2.00;;
80163;SDS011;70071;55.130;61.268;2024-03-08T07:34:07;3.10;;;1.73;;
80163;SDS011;70071;55.130;61.268;2024-03-08T07:36:33;3.72;;;2.10;;
80163;SDS011;70071;55.130;61.268;2024-03-08T07:39:02;2.55;;;1.48;;
80163;SDS011;70071;55.130;61.268;2024-03-08T07:41:30;3.53;;;2.00;;
80163;SDS011;70071;55.130;61.268;2024-03-08T07:43:56;2.42;;;1.88;;
80163;SDS011;70071;55.130;61.268;2024-03-08T07:46:22;6.07;;;2.30;;
80163;SDS011;70071;55.130;61.268;2024-03-08T07:48:48;3.90;;;2.05;;
80163;SDS011;70071;55.130;61.268;2024-03-08T07:51:17;5.32;;;2.90;;
80163;SDS011;70071;55.130;61.268;2024-03-08T07:53:43;4.13;;;2.00;;
80163;SDS011;70071;55.130;61.268;2024-03-08T07:56:10;5.50;;;1.90;;
80163;SDS011;70071;55.130;61.268;2024-03-08T07:58:38;3.13;;;1.30;;
80163;SDS011;70071;55.130;61.268;2024-03-08T08:01:06;3.00;;;1.73;;
80163;SDS011;70071;55.130;61.268;2024-03-08T08:03:32;2.40;;;1.70;;
80163;SDS011;70071;55.130;61.268;2024-03-08T08:05:58;3.55;;;1.52;;
80163;SDS011;70071;55.130;61.268;2024-03-08T08:08:24;2.80;;;1.88;;
80163;SDS011;70071;55.130;61.268;2024-03-08T08:10:51;3.08;;;1.83;;
80163;SDS011;70071;55.130;61.268;2024-03-08T08:13:17;3.35;;;1.98;;
80163;SDS011;70071;55.130;61.268;2024-03-08T08:15:43;2.13;;;1.35;;
80163;SDS011;70071;55.130;61.268;2024-03-08T08:18:09;2.35;;;1.60;;
80163;SDS011;70071;55.130;61.268;2024-03-08T08:20:35;2.17;;;1.02;;
80163;SDS011;70071;55.130;61.268;2024-03-08T08:23:20;1.70;;;1.23;;
80163;SDS011;70071;55.130;61.268;2024-03-08T08:25:46;2.30;;;1.63;;
80163;SDS011;70071;55.130;61.268;2024-03-08T08:28:18;2.38;;;1.50;;
80163;SDS011;70071;55.130;61.268;2024-03-08T08:30:44;2.08;;;1.33;;
80163;SDS011;70071;55.130;61.268;2024-03-08T08:33:10;1.83;;;1.23;;
80163;SDS011;70071;55.130;61.268;2024-03-08T08:35:37;3.88;;;1.90;;
80163;SDS011;70071;55.130;61.268;2024-03-08T08:38:05;2.47;;;1.60;;
80163;SDS011;70071;55.130;61.268;2024-03-08T08:40:33;3.85;;;1.70;;
80163;SDS011;70071;55.130;61.268;2024-03-08T08:43:01;2.95;;;1.90;;
80163;SDS011;70071;55.130;61.268;2024-03-08T08:45:30;2.90;;;1.75;;
80163;SDS011;70071;55.130;61.268;2024-03-08T08:47:56;2.88;;;1.80;;
80163;SDS011;70071;55.130;61.268;2024-03-08T08:50:25;2.42;;;1.88;;
80163;SDS011;70071;55.130;61.268;2024-03-08T08:52:54;3.47;;;2.10;;
80163;SDS011;70071;55.130;61.268;2024-03-08T08:55:21;2.72;;;2.10;;
80163;SDS011;70071;55.130;61.268;2024-03-08T08:57:50;3.20;;;2.10;;
80163;SDS011;70071;55.130;61.268;2024-03-08T09:00:19;4.57;;;2.22;;
80163;SDS011;70071;55.130;61.268;2024-03-08T09:02:47;3.50;;;2.00;;
80163;SDS011;70071;55.130;61.268;2024-03-08T09:05:16;1.95;;;1.13;;
80163;SDS011;70071;55.130;61.268;2024-03-08T09:07:43;2.40;;;1.50;;
80163;SDS011;70071;55.130;61.268;2024-03-08T09:10:13;3.97;;;1.13;;
80163;SDS011;70071;55.130;61.268;2024-03-08T09:12:39;5.03;;;1.83;;
80163;SDS011;70071;55.130;61.268;2024-03-08T09:15:06;4.45;;;1.83;;
80163;SDS011;70071;55.130;61.268;2024-03-08T09:17:39;3.00;;;1.92;;
80163;SDS011;70071;55.130;61.268;2024-03-08T09:20:08;2.67;;;1.83;;
80163;SDS011;70071;55.130;61.268;2024-03-08T09:22:44;3.95;;;1.70;;
80163;SDS011;70071;55.130;61.268;2024-03-08T09:25:11;2.83;;;1.90;;
80163;SDS011;70071;55.130;61.268;2024-03-08T09:27:37;3.88;;;1.85;;
80163;SDS011;70071;55.130;61.268;2024-03-08T09:30:05;4.28;;;2.00;;
80163;SDS011;70071;55.130;61.268;2024-03-08T09:32:32;5.22;;;2.72;;
80163;SDS011;70071;55.130;61.268;2024-03-08T09:34:58;3.90;;;2.20;;
80163;SDS011;70071;55.130;61.268;2024-03-08T09:37:26;3.47;;;1.77;;
80163;SDS011;70071;55.130;61.268;2024-03-08T09:39:52;2.33;;;1.33;;
80163;SDS011;70071;55.130;61.268;2024-03-08T09:42:18;3.30;;;1.65;;
80163;SDS011;70071;55.130;61.268;2024-03-08T09:44:45;2.83;;;1.83;;
80163;SDS011;70071;55.130;61.268;2024-03-08T09:49:39;2.88;;;2.05;;
80163;SDS011;70071;55.130;61.268;2024-03-08T09:52:06;4.10;;;2.05;;
80163;SDS011;70071;55.130;61.268;2024-03-08T09:54:33;4.30;;;2.30;;
80163;SDS011;70071;55.130;61.268;2024-03-08T09:57:00;5.18;;;1.88;;
80163;SDS011;70071;55.130;61.268;2024-03-08T09:59:29;4.65;;;3.00;;
80163;SDS011;70071;55.130;61.268;2024-03-08T10:02:01;5.47;;;2.90;;
80163;SDS011;70071;55.130;61.268;2024-03-08T10:04:31;4.00;;;2.60;;
80163;SDS011;70071;55.130;61.268;2024-03-08T10:06:57;4.00;;;2.13;;
80163;SDS011;70071;55.130;61.268;2024-03-08T10:09:24;3.25;;;2.10;;
80163;SDS011;70071;55.130;61.268;2024-03-08T10:11:56;3.53;;;2.33;;
80163;SDS011;70071;55.130;61.268;2024-03-08T10:14:24;3.08;;;2.50;;
80163;SDS011;70071;55.130;61.268;2024-03-08T10:16:53;3.80;;;2.17;;
80163;SDS011;70071;55.130;61.268;2024-03-08T10:19:20;5.22;;;2.22;;
80163;SDS011;70071;55.130;61.268;2024-03-08T10:21:48;4.40;;;2.20;;
80163;SDS011;70071;55.130;61.268;2024-03-08T10:24:24;4.05;;;2.20;;
80163;SDS011;70071;55.130;61.268;2024-03-08T10:26:58;4.47;;;2.45;;
80163;SDS011;70071;55.130;61.268;2024-03-08T10:29:26;3.88;;;1.88;;
80163;SDS011;70071;55.130;61.268;2024-03-08T10:31:54;3.00;;;1.98;;
80163;SDS011;70071;55.130;61.268;2024-03-08T10:34:23;2.42;;;1.75;;
80163;SDS011;70071;55.130;61.268;2024-03-08T10:36:50;4.10;;;1.85;;
80163;SDS011;70071;55.130;61.268;2024-03-08T10:39:22;4.30;;;2.20;;
80163;SDS011;70071;55.130;61.268;2024-03-08T10:41:53;3.55;;;1.60;;
80163;SDS011;70071;55.130;61.268;2024-03-08T10:44:44;3.30;;;1.73;;
80163;SDS011;70071;55.130;61.268;2024-03-08T10:47:26;2.40;;;1.88;;
80163;SDS011;70071;55.130;61.268;2024-03-08T10:50:11;3.58;;;1.60;;
80163;SDS011;70071;55.130;61.268;2024-03-08T10:52:51;3.17;;;1.95;;
80163;SDS011;70071;55.130;61.268;2024-03-08T10:55:18;2.72;;;1.80;;
80163;SDS011;70071;55.130;61.268;2024-03-08T10:57:46;2.47;;;1.73;;
80163;SDS011;70071;55.130;61.268;2024-03-08T11:00:15;3.53;;;1.92;;
80163;SDS011;70071;55.130;61.268;2024-03-08T11:02:45;2.40;;;1.60;;
80163;SDS011;70071;55.130;61.268;2024-03-08T11:05:15;2.80;;;1.88;;
80163;SDS011;70071;55.130;61.268;2024-03-08T11:11:00;4.63;;;1.90;;
80163;SDS011;70071;55.130;61.268;2024-03-08T11:13:33;2.97;;;1.83;;
80163;SDS011;70071;55.130;61.268;2024-03-08T11:16:08;2.75;;;1.65;;
80163;SDS011;70071;55.130;61.268;2024-03-08T11:18:45;2.22;;;1.30;;
80163;SDS011;70071;55.130;61.268;2024-03-08T11:21:13;3.75;;;2.05;;
80163;SDS011;70071;55.130;61.268;2024-03-08T11:23:39;2.85;;;1.88;;
80163;SDS011;70071;55.130;61.268;2024-03-08T11:26:19;3.13;;;1.85;;
80163;SDS011;70071;55.130;61.268;2024-03-08T11:28:46;3.38;;;1.77;;
80163;SDS011;70071;55.130;61.268;2024-03-08T11:33:40;3.95;;;2.65;;
80163;SDS011;70071;55.130;61.268;2024-03-08T11:36:13;4.35;;;2.20;;
80163;SDS011;70071;55.130;61.268;2024-03-08T11:38:47;3.45;;;2.60;;
80163;SDS011;70071;55.130;61.268;2024-03-08T11:41:16;4.10;;;2.67;;
80163;SDS011;70071;55.130;61.268;2024-03-08T11:43:47;4.07;;;2.60;;
80163;SDS011;70071;55.130;61.268;2024-03-08T11:46:13;3.83;;;2.35;;
80163;SDS011;70071;55.130;61.268;2024-03-08T11:48:41;4.32;;;2.72;;
80163;SDS011;70071;55.130;61.268;2024-03-08T11:51:10;4.38;;;2.50;;
80163;SDS011;70071;55.130;61.268;2024-03-08T11:53:37;4.55;;;3.00;;
80163;SDS011;70071;55.130;61.268;2024-03-08T11:56:08;3.47;;;2.20;;
80163;SDS011;70071;55.130;61.268;2024-03-08T11:58:34;4.57;;;2.67;;
80163;SDS011;70071;55.130;61.268;2024-03-08T12:01:04;5.38;;;2.92;;
80163;SDS011;70071;55.130;61.268;2024-03-08T12:03:40;4.43;;;3.15;;
80163;SDS011;70071;55.130;61.268;2024-03-08T12:06:10;4.55;;;3.35;;
80163;SDS011;70071;55.130;61.268;2024-03-08T12:08:37;4.45;;;2.72;;
80163;SDS011;70071;55.130;61.268;2024-03-08T12:11:04;6.20;;;3.78;;
80163;SDS011;70071;55.130;61.268;2024-03-08T12:13:31;4.93;;;2.95;;
80163;SDS011;70071;55.130;61.268;2024-03-08T12:15:58;5.20;;;2.67;;
80163;SDS011;70071;55.130;61.268;2024-03-08T12:18:25;3.65;;;2.80;;
80163;SDS011;70071;55.130;61.268;2024-03-08T12:20:52;6.72;;;2.75;;
80163;SDS011;70071;55.130;61.268;2024-03-08T12:23:29;6.85;;;2.75;;
80163;SDS011;70071;55.130;61.268;2024-03-08T12:25:55;4.03;;;1.95;;
80163;SDS011;70071;55.130;61.268;2024-03-08T12:28:22;4.85;;;2.58;;
80163;SDS011;70071;55.130;61.268;2024-03-08T12:30:49;4.15;;;2.55;;
80163;SDS011;70071;55.130;61.268;2024-03-08T12:33:21;4.07;;;2.85;;
80163;SDS011;70071;55.130;61.268;2024-03-08T12:38:20;5.78;;;2.75;;
80163;SDS011;70071;55.130;61.268;2024-03-08T12:40:58;5.55;;;3.10;;
80163;SDS011;70071;55.130;61.268;2024-03-08T12:43:24;4.75;;;2.63;;
80163;SDS011;70071;55.130;61.268;2024-03-08T12:45:50;4.85;;;2.83;;
80163;SDS011;70071;55.130;61.268;2024-03-08T12:48:18;3.92;;;2.47;;
80163;SDS011;70071;55.130;61.268;2024-03-08T12:50:46;4.90;;;3.05;;
80163;SDS011;70071;55.130;61.268;2024-03-08T12:53:13;5.20;;;2.55;;
80163;SDS011;70071;55.130;61.268;2024-03-08T12:55:39;5.70;;;2.95;;
80163;SDS011;70071;55.130;61.268;2024-03-08T12:58:06;5.72;;;3.63;;
80163;SDS011;70071;55.130;61.268;2024-03-08T13:00:34;5.15;;;3.22;;
80163;SDS011;70071;55.130;61.268;2024-03-08T13:03:08;3.80;;;2.50;;
80163;SDS011;70071;55.130;61.268;2024-03-08T13:05:36;6.57;;;2.97;;
80163;SDS011;70071;55.130;61.268;2024-03-08T13:08:06;6.00;;;3.13;;
80163;SDS011;70071;55.130;61.268;2024-03-08T13:10:38;4.60;;;3.05;;
80163;SDS011;70071;55.130;61.268;2024-03-08T13:13:06;5.97;;;2.95;;
80163;SDS011;70071;55.130;61.268;2024-03-08T13:15:32;4.90;;;3.00;;
80163;SDS011;70071;55.130;61.268;2024-03-08T13:17:59;6.60;;;3.55;;
80163;SDS011;70071;55.130;61.268;2024-03-08T13:20:25;4.70;;;3.15;;
80163;SDS011;70071;55.130;61.268;2024-03-08T13:22:53;6.45;;;3.65;;
80163;SDS011;70071;55.130;61.268;2024-03-08T13:25:20;5.05;;;3.38;;
80163;SDS011;70071;55.130;61.268;2024-03-08T13:27:46;4.03;;;3.28;;
80163;SDS011;70071;55.130;61.268;2024-03-08T13:30:12;5.38;;;2.67;;
80163;SDS011;70071;55.130;61.268;2024-03-08T13:32:41;4.85;;;2.85;;
80163;SDS011;70071;55.130;61.268;2024-03-08T13:35:12;5.63;;;3.05;;
80163;SDS011;70071;55.130;61.268;2024-03-08T13:37:39;5.60;;;2.80;;
80163;SDS011;70071;55.130;61.268;2024-03-08T13:40:09;4.80;;;2.65;;
80163;SDS011;70071;55.130;61.268;2024-03-08T13:42:40;4.97;;;2.80;;
80163;SDS011;70071;55.130;61.268;2024-03-08T13:45:10;4.53;;;2.92;;
80163;SDS011;70071;55.130;61.268;2024-03-08T13:47:37;4.85;;;2.92;;
80163;SDS011;70071;55.130;61.268;2024-03-08T13:50:10;5.47;;;2.67;;
80163;SDS011;70071;55.130;61.268;2024-03-08T13:52:38;5.32;;;3.38;;
80163;SDS011;70071;55.130;61.268;2024-03-08T13:55:05;5.15;;;3.28;;
80163;SDS011;70071;55.130;61.268;2024-03-08T13:57:32;5.47;;;3.22;;
80163;SDS011;70071;55.130;61.268;2024-03-08T13:59:58;3.78;;;2.63;;
80163;SDS011;70071;55.130;61.268;2024-03-08T14:02:25;5.07;;;2.65;;
80163;SDS011;70071;55.130;61.268;2024-03-08T14:04:54;4.70;;;3.08;;
80163;SDS011;70071;55.130;61.268;2024-03-08T14:09:46;9.57;;;5.13;;
80163;SDS011;70071;55.130;61.268;2024-03-08T14:12:12;9.25;;;5.65;;
80163;SDS011;70071;55.130;61.268;2024-03-08T14:14:40;10.50;;;6.63;;
80163;SDS011;70071;55.130;61.268;2024-03-08T14:17:07;10.70;;;5.97;;
80163;SDS011;70071;55.130;61.268;2024-03-08T14:19:36;15.73;;;6.65;;
80163;SDS011;70071;55.130;61.268;2024-03-08T14:22:04;12.85;;;7.40;;
80163;SDS011;70071;55.130;61.268;2024-03-08T14:24:31;15.75;;;6.53;;
80163;SDS011;70071;55.130;61.268;2024-03-08T14:26:57;10.77;;;5.20;;
80163;SDS011;70071;55.130;61.268;2024-03-08T14:29:25;14.30;;;5.40;;
80163;SDS011;70071;55.130;61.268;2024-03-08T14:31:55;8.95;;;5.28;;
80163;SDS011;70071;55.130;61.268;2024-03-08T14:34:24;8.27;;;4.80;;
80163;SDS011;70071;55.130;61.268;2024-03-08T14:36:55;12.98;;;5.80;;
80163;SDS011;70071;55.130;61.268;2024-03-08T14:41:57;8.63;;;4.75;;
80163;SDS011;70071;55.130;61.268;2024-03-08T14:44:24;10.55;;;4.90;;
80163;SDS011;70071;55.130;61.268;2024-03-08T14:46:52;8.55;;;4.18;;
80163;SDS011;70071;55.130;61.268;2024-03-08T14:49:19;10.93;;;5.13;;
80163;SDS011;70071;55.130;61.268;2024-03-08T14:51:45;10.15;;;4.80;;
80163;SDS011;70071;55.130;61.268;2024-03-08T14:54:11;12.93;;;5.80;;
80163;SDS011;70071;55.130;61.268;2024-03-08T14:56:38;11.63;;;5.95;;
80163;SDS011;70071;55.130;61.268;2024-03-08T14:59:08;11.70;;;5.45;;
80163;SDS011;70071;55.130;61.268;2024-03-08T15:04:01;10.23;;;5.43;;
80163;SDS011;70071;55.130;61.268;2024-03-08T15:06:35;11.27;;;5.40;;